< < Back
Terminal Aerodrome Forecast


Current Version              Previous Versions:   1  2  3  4  5  6  7  8  9  

Terminal Aerodrome Forecast

822
FTUS42 KFFC 040524
TAFAHN
TAF
KAHN 040524Z 0406/0506 31006KT P6SM SKC
     FM041400 30008G16KT P6SM SKC
     FM042000 29010G18KT P6SM FEW050 FEW250
     FM050200 28008KT P6SM BKN100=

Latest METAR

103
SAUS70 KWBC 041000 RRA
MTRAHN
METAR KAHN 040951Z AUTO 00000KT 10SM CLR 12/10 A2980 RMK AO2 SLP085
T01220100


USA.gov is the U.S. government's official web portal to all federal, state and local government web resources and services.